Terminal Aerodrome Forecast
Issued by NWS Binghamton, NY

Home | Current Version | Previous Version | Text Only | Print | Product List | Glossary On
Versions: 1 2 3 4 5 6 7 8 9 10 11 12 13 14 15 16 17 18 19 20 21
101
FTUS41 KBGM 260522
TAFAVP
TAF
KAVP 260522Z 2606/2706 22005KT P6SM SCT006
      TEMPO 2607/2611 3SM BR
     FM261400 30010G15KT P6SM SKC
     FM270000 04004KT P6SM SKC=

USA.gov is the U.S. government's official web portal to all federal, state and local government web resources and services.